sensor_id;sensor_type;location;lat;lon;timestamp;pressure;altitude;pressure_sealevel;temperature;humidity
72570;BME280;60594;50.204;8.844;2023-04-25T00:00:38;99289.16;;;7.73;100.00
72570;BME280;60594;50.204;8.844;2023-04-25T00:03:19;99296.41;;;7.71;100.00
72570;BME280;60594;50.204;8.844;2023-04-25T00:05:47;99297.84;;;7.75;100.00
72570;BME280;60594;50.204;8.844;2023-04-25T00:08:13;99293.84;;;7.80;100.00
72570;BME280;60594;50.204;8.844;2023-04-25T00:10:40;99295.34;;;7.94;100.00
72570;BME280;60594;50.204;8.844;2023-04-25T00:13:06;99306.06;;;7.92;100.00
72570;BME280;60594;50.204;8.844;2023-04-25T00:15:34;99302.19;;;7.96;100.00
72570;BME280;60594;50.204;8.844;2023-04-25T00:18:02;99301.94;;;7.99;100.00
72570;BME280;60594;50.204;8.844;2023-04-25T00:20:29;99294.97;;;7.98;100.00
72570;BME280;60594;50.204;8.844;2023-04-25T00:22:56;99300.16;;;8.00;100.00
72570;BME280;60594;50.204;8.844;2023-04-25T00:25:22;99293.66;;;7.93;100.00
72570;BME280;60594;50.204;8.844;2023-04-25T00:27:49;99305.38;;;7.90;100.00
72570;BME280;60594;50.204;8.844;2023-04-25T00:30:16;99301.56;;;7.83;100.00
72570;BME280;60594;50.204;8.844;2023-04-25T00:32:42;99295.41;;;7.83;100.00
72570;BME280;60594;50.204;8.844;2023-04-25T00:35:09;99299.16;;;7.80;100.00
72570;BME280;60594;50.204;8.844;2023-04-25T00:37:36;99295.88;;;7.88;100.00
72570;BME280;60594;50.204;8.844;2023-04-25T00:40:05;99307.06;;;7.91;100.00
72570;BME280;60594;50.204;8.844;2023-04-25T00:42:32;99307.19;;;7.90;100.00
72570;BME280;60594;50.204;8.844;2023-04-25T00:44:59;99297.22;;;7.82;100.00
72570;BME280;60594;50.204;8.844;2023-04-25T00:47:26;99297.22;;;7.82;100.00
72570;BME280;60594;50.204;8.844;2023-04-25T00:49:53;99299.16;;;7.80;100.00
72570;BME280;60594;50.204;8.844;2023-04-25T00:52:19;99294.00;;;7.68;100.00
72570;BME280;60594;50.204;8.844;2023-04-25T00:54:47;99291.38;;;7.68;100.00
72570;BME280;60594;50.204;8.844;2023-04-25T00:57:13;99286.97;;;7.57;100.00
72570;BME280;60594;50.204;8.844;2023-04-25T00:59:44;99294.19;;;7.55;100.00
72570;BME280;60594;50.204;8.844;2023-04-25T01:02:11;99303.41;;;7.40;100.00
72570;BME280;60594;50.204;8.844;2023-04-25T01:04:38;99289.66;;;7.46;100.00
72570;BME280;60594;50.204;8.844;2023-04-25T01:07:05;99287.91;;;7.56;100.00
72570;BME280;60594;50.204;8.844;2023-04-25T01:09:31;99288.84;;;7.66;100.00
72570;BME280;60594;50.204;8.844;2023-04-25T01:12:01;99288.91;;;7.76;100.00
72570;BME280;60594;50.204;8.844;2023-04-25T01:14:29;99291.00;;;7.72;100.00
72570;BME280;60594;50.204;8.844;2023-04-25T01:16:56;99297.91;;;7.84;100.00
72570;BME280;60594;50.204;8.844;2023-04-25T01:19:23;99295.56;;;7.70;100.00
72570;BME280;60594;50.204;8.844;2023-04-25T01:21:50;99298.13;;;7.92;100.00
72570;BME280;60594;50.204;8.844;2023-04-25T01:24:17;99293.16;;;7.99;100.00
72570;BME280;60594;50.204;8.844;2023-04-25T01:26:44;99285.78;;;8.02;100.00
72570;BME280;60594;50.204;8.844;2023-04-25T01:29:18;99293.91;;;7.90;100.00
72570;BME280;60594;50.204;8.844;2023-04-25T01:31:45;99294.97;;;7.98;100.00
72570;BME280;60594;50.204;8.844;2023-04-25T01:34:13;99294.34;;;7.95;100.00
72570;BME280;60594;50.204;8.844;2023-04-25T01:36:39;99280.41;;;7.93;100.00
72570;BME280;60594;50.204;8.844;2023-04-25T01:39:07;99281.56;;;8.00;100.00
72570;BME280;60594;50.204;8.844;2023-04-25T01:41:33;99284.97;;;8.11;100.00
72570;BME280;60594;50.204;8.844;2023-04-25T01:44:01;99280.03;;;8.18;100.00
72570;BME280;60594;50.204;8.844;2023-04-25T01:46:29;99286.00;;;8.20;100.00
72570;BME280;60594;50.204;8.844;2023-04-25T01:48:55;99290.13;;;8.24;100.00
72570;BME280;60594;50.204;8.844;2023-04-25T01:51:22;99292.78;;;8.24;100.00
72570;BME280;60594;50.204;8.844;2023-04-25T01:53:49;99290.34;;;8.21;100.00
72570;BME280;60594;50.204;8.844;2023-04-25T01:56:18;99293.72;;;8.02;100.00
72570;BME280;60594;50.204;8.844;2023-04-25T01:58:45;99294.78;;;8.11;100.00
72570;BME280;60594;50.204;8.844;2023-04-25T02:01:11;99297.81;;;8.06;100.00
72570;BME280;60594;50.204;8.844;2023-04-25T02:03:45;99297.81;;;8.06;100.00
72570;BME280;60594;50.204;8.844;2023-04-25T02:06:20;99300.59;;;8.05;100.00
72570;BME280;60594;50.204;8.844;2023-04-25T02:08:48;99307.31;;;8.09;100.00
72570;BME280;60594;50.204;8.844;2023-04-25T02:11:14;99293.06;;;8.10;100.00
72570;BME280;60594;50.204;8.844;2023-04-25T02:13:47;99298.25;;;8.11;100.00
72570;BME280;60594;50.204;8.844;2023-04-25T02:16:35;99298.66;;;8.07;100.00
72570;BME280;60594;50.204;8.844;2023-04-25T02:19:02;99293.41;;;7.96;100.00
72570;BME280;60594;50.204;8.844;2023-04-25T02:21:30;99290.50;;;7.99;100.00
72570;BME280;60594;50.204;8.844;2023-04-25T02:23:57;99290.94;;;8.04;100.00
72570;BME280;60594;50.204;8.844;2023-04-25T02:26:24;99286.22;;;8.07;100.00
72570;BME280;60594;50.204;8.844;2023-04-25T02:28:51;99286.22;;;8.07;100.00
72570;BME280;60594;50.204;8.844;2023-04-25T02:31:19;99289.84;;;8.06;100.00
72570;BME280;60594;50.204;8.844;2023-04-25T02:33:46;99290.09;;;8.03;100.00
72570;BME280;60594;50.204;8.844;2023-04-25T02:36:12;99285.09;;;8.10;100.00
72570;BME280;60594;50.204;8.844;2023-04-25T02:38:39;99281.38;;;8.12;100.00
72570;BME280;60594;50.204;8.844;2023-04-25T02:41:05;99290.41;;;8.10;100.00
72570;BME280;60594;50.204;8.844;2023-04-25T02:43:32;99285.97;;;8.10;100.00
72570;BME280;60594;50.204;8.844;2023-04-25T02:45:58;99286.81;;;8.11;100.00
72570;BME280;60594;50.204;8.844;2023-04-25T02:48:25;99281.03;;;8.06;100.00
72570;BME280;60594;50.204;8.844;2023-04-25T02:50:51;99292.19;;;8.00;100.00
72570;BME280;60594;50.204;8.844;2023-04-25T02:53:18;99298.38;;;7.89;100.00
72570;BME280;60594;50.204;8.844;2023-04-25T02:55:48;99295.31;;;7.73;100.00
72570;BME280;60594;50.204;8.844;2023-04-25T02:58:15;99290.50;;;7.67;100.00
72570;BME280;60594;50.204;8.844;2023-04-25T03:00:46;99290.06;;;7.62;100.00
72570;BME280;60594;50.204;8.844;2023-04-25T03:03:12;99290.72;;;7.55;100.00
72570;BME280;60594;50.204;8.844;2023-04-25T03:05:39;99293.13;;;7.47;100.00
72570;BME280;60594;50.204;8.844;2023-04-25T03:08:06;99299.78;;;7.41;99.23
72570;BME280;60594;50.204;8.844;2023-04-25T03:10:33;99291.03;;;7.30;100.00
72570;BME280;60594;50.204;8.844;2023-04-25T03:13:04;99294.78;;;7.27;100.00
72570;BME280;60594;50.204;8.844;2023-04-25T03:15:30;99298.66;;;7.23;100.00
72570;BME280;60594;50.204;8.844;2023-04-25T03:17:57;99287.44;;;7.20;100.00
72570;BME280;60594;50.204;8.844;2023-04-25T03:20:24;99294.53;;;7.19;100.00
72570;BME280;60594;50.204;8.844;2023-04-25T03:22:50;99300.09;;;7.16;99.79
72570;BME280;60594;50.204;8.844;2023-04-25T03:25:18;99301.66;;;7.19;99.90
72570;BME280;60594;50.204;8.844;2023-04-25T03:27:45;99303.81;;;7.13;100.00
72570;BME280;60594;50.204;8.844;2023-04-25T03:30:12;99294.06;;;7.14;100.00
72570;BME280;60594;50.204;8.844;2023-04-25T03:32:39;99298.03;;;7.20;99.90
72570;BME280;60594;50.204;8.844;2023-04-25T03:35:07;99294.69;;;7.18;98.99
72570;BME280;60594;50.204;8.844;2023-04-25T03:37:34;99297.81;;;7.12;98.19
72570;BME280;60594;50.204;8.844;2023-04-25T03:40:00;99310.59;;;7.07;100.00
72570;BME280;60594;50.204;8.844;2023-04-25T03:42:39;99311.91;;;7.12;100.00
72570;BME280;60594;50.204;8.844;2023-04-25T03:45:06;99310.31;;;7.09;99.20
72570;BME280;60594;50.204;8.844;2023-04-25T03:47:33;99307.78;;;7.08;99.75
72570;BME280;60594;50.204;8.844;2023-04-25T03:49:59;99310.44;;;7.19;98.95
72570;BME280;60594;50.204;8.844;2023-04-25T03:52:29;99314.78;;;7.20;97.87
72570;BME280;60594;50.204;8.844;2023-04-25T03:54:56;99328.38;;;7.16;97.52
72570;BME280;60594;50.204;8.844;2023-04-25T03:57:24;99334.44;;;7.07;96.59
72570;BME280;60594;50.204;8.844;2023-04-25T03:59:51;99319.13;;;6.99;98.95
72570;BME280;60594;50.204;8.844;2023-04-25T04:02:18;99327.19;;;6.97;99.31
72570;BME280;60594;50.204;8.844;2023-04-25T04:04:45;99333.13;;;7.01;97.71
72570;BME280;60594;50.204;8.844;2023-04-25T04:07:12;99336.94;;;6.97;99.50
72570;BME280;60594;50.204;8.844;2023-04-25T04:09:41;99335.75;;;7.01;97.84
72570;BME280;60594;50.204;8.844;2023-04-25T04:12:13;99329.63;;;6.89;97.53
72570;BME280;60594;50.204;8.844;2023-04-25T04:14:40;99342.00;;;6.89;97.41
72570;BME280;60594;50.204;8.844;2023-04-25T04:17:07;99336.00;;;6.87;97.93
72570;BME280;60594;50.204;8.844;2023-04-25T04:19:33;99328.19;;;6.85;99.73
72570;BME280;60594;50.204;8.844;2023-04-25T04:22:10;99333.94;;;6.90;100.00
72570;BME280;60594;50.204;8.844;2023-04-25T04:24:38;99340.81;;;6.93;98.36
72570;BME280;60594;50.204;8.844;2023-04-25T04:27:07;99350.56;;;6.81;99.11
72570;BME280;60594;50.204;8.844;2023-04-25T04:29:40;99359.84;;;6.87;98.55
72570;BME280;60594;50.204;8.844;2023-04-25T04:32:15;99360.31;;;6.92;96.55
72570;BME280;60594;50.204;8.844;2023-04-25T04:34:42;99362.38;;;6.88;96.73
72570;BME280;60594;50.204;8.844;2023-04-25T04:37:10;99360.06;;;6.84;96.41
72570;BME280;60594;50.204;8.844;2023-04-25T04:39:39;99366.69;;;6.78;96.25
72570;BME280;60594;50.204;8.844;2023-04-25T04:42:28;99374.41;;;6.70;95.51
72570;BME280;60594;50.204;8.844;2023-04-25T04:45:08;99375.47;;;6.68;95.86
72570;BME280;60594;50.204;8.844;2023-04-25T04:47:44;99383.78;;;6.63;95.27
72570;BME280;60594;50.204;8.844;2023-04-25T04:50:37;99379.16;;;6.54;95.78
72570;BME280;60594;50.204;8.844;2023-04-25T04:53:14;99381.09;;;6.52;97.71
72570;BME280;60594;50.204;8.844;2023-04-25T04:55:46;99374.72;;;6.55;97.67
72570;BME280;60594;50.204;8.844;2023-04-25T04:58:26;99381.84;;;6.65;98.69
72570;BME280;60594;50.204;8.844;2023-04-25T05:01:06;99384.59;;;6.64;97.49
72570;BME280;60594;50.204;8.844;2023-04-25T05:03:53;99388.94;;;6.65;97.22
72570;BME280;60594;50.204;8.844;2023-04-25T05:06:46;99385.31;;;6.55;96.69
72570;BME280;60594;50.204;8.844;2023-04-25T05:09:28;99391.59;;;6.54;98.23
72570;BME280;60594;50.204;8.844;2023-04-25T05:12:07;99402.06;;;6.55;96.89
72570;BME280;60594;50.204;8.844;2023-04-25T05:14:47;99397.59;;;6.56;95.62
72570;BME280;60594;50.204;8.844;2023-04-25T05:17:34;99393.72;;;6.49;96.29
72570;BME280;60594;50.204;8.844;2023-04-25T05:20:00;99405.03;;;6.51;95.01
72570;BME280;60594;50.204;8.844;2023-04-25T05:22:59;99399.50;;;6.43;96.90
72570;BME280;60594;50.204;8.844;2023-04-25T05:25:45;99411.41;;;6.48;97.89
72570;BME280;60594;50.204;8.844;2023-04-25T05:28:31;99411.91;;;6.53;97.01
72570;BME280;60594;50.204;8.844;2023-04-25T05:31:16;99413.72;;;6.53;99.50
72570;BME280;60594;50.204;8.844;2023-04-25T05:33:57;99417.69;;;6.69;95.89
72570;BME280;60594;50.204;8.844;2023-04-25T05:36:32;99412.16;;;6.72;95.50
72570;BME280;60594;50.204;8.844;2023-04-25T05:38:58;99405.91;;;6.62;98.66
72570;BME280;60594;50.204;8.844;2023-04-25T05:41:43;99418.56;;;6.70;99.04
72570;BME280;60594;50.204;8.844;2023-04-25T05:44:45;99414.59;;;6.75;93.16
72570;BME280;60594;50.204;8.844;2023-04-25T05:47:31;99417.88;;;6.79;95.31
72570;BME280;60594;50.204;8.844;2023-04-25T05:50:06;99414.94;;;6.82;95.41
72570;BME280;60594;50.204;8.844;2023-04-25T05:52:52;99426.53;;;6.92;94.51
72570;BME280;60594;50.204;8.844;2023-04-25T05:55:44;99414.84;;;6.83;94.37
72570;BME280;60594;50.204;8.844;2023-04-25T05:58:26;99414.13;;;6.92;94.76
72570;BME280;60594;50.204;8.844;2023-04-25T06:00:53;99422.44;;;6.99;93.68
72570;BME280;60594;50.204;8.844;2023-04-25T06:03:20;99430.72;;;6.94;92.27
72570;BME280;60594;50.204;8.844;2023-04-25T06:05:47;99435.91;;;6.96;94.91
72570;BME280;60594;50.204;8.844;2023-04-25T06:08:14;99427.28;;;7.05;89.39
72570;BME280;60594;50.204;8.844;2023-04-25T06:10:40;99433.03;;;7.10;90.03
72570;BME280;60594;50.204;8.844;2023-04-25T06:13:07;99434.09;;;6.85;94.61
72570;BME280;60594;50.204;8.844;2023-04-25T06:15:35;99434.47;;;7.03;94.43
72570;BME280;60594;50.204;8.844;2023-04-25T06:18:01;99440.00;;;6.89;91.45
72570;BME280;60594;50.204;8.844;2023-04-25T06:20:28;99430.38;;;6.88;95.23
72570;BME280;60594;50.204;8.844;2023-04-25T06:22:57;99434.47;;;7.03;90.67
72570;BME280;60594;50.204;8.844;2023-04-25T06:25:37;99430.25;;;6.78;90.78
72570;BME280;60594;50.204;8.844;2023-04-25T06:28:03;99436.16;;;6.93;88.96
72570;BME280;60594;50.204;8.844;2023-04-25T06:30:30;99439.63;;;6.71;90.11
72570;BME280;60594;50.204;8.844;2023-04-25T06:33:02;99436.38;;;6.68;91.64
72570;BME280;60594;50.204;8.844;2023-04-25T06:35:30;99436.63;;;6.76;92.56
72570;BME280;60594;50.204;8.844;2023-04-25T06:37:56;99437.88;;;7.05;91.30
72570;BME280;60594;50.204;8.844;2023-04-25T06:40:24;99434.22;;;6.73;90.20
72570;BME280;60594;50.204;8.844;2023-04-25T06:42:51;99434.81;;;6.87;94.34
72570;BME280;60594;50.204;8.844;2023-04-25T06:45:32;99440.13;;;7.09;87.57
72570;BME280;60594;50.204;8.844;2023-04-25T06:47:59;99438.34;;;7.21;85.61
72570;BME280;60594;50.204;8.844;2023-04-25T06:50:25;99438.22;;;7.23;86.74
72570;BME280;60594;50.204;8.844;2023-04-25T06:52:52;99433.41;;;7.28;87.63
72570;BME280;60594;50.204;8.844;2023-04-25T06:55:20;99438.81;;;7.26;86.19
72570;BME280;60594;50.204;8.844;2023-04-25T06:58:01;99442.09;;;7.30;89.06
72570;BME280;60594;50.204;8.844;2023-04-25T07:00:48;99434.22;;;7.50;86.96
72570;BME280;60594;50.204;8.844;2023-04-25T07:03:14;99437.25;;;7.46;86.73
72570;BME280;60594;50.204;8.844;2023-04-25T07:05:41;99447.25;;;7.42;90.14
72570;BME280;60594;50.204;8.844;2023-04-25T07:08:08;99446.88;;;7.36;88.22
72570;BME280;60594;50.204;8.844;2023-04-25T07:10:34;99448.09;;;7.43;86.72
72570;BME280;60594;50.204;8.844;2023-04-25T07:13:02;99446.84;;;7.58;84.09
72570;BME280;60594;50.204;8.844;2023-04-25T07:15:28;99449.28;;;7.61;89.76
72570;BME280;60594;50.204;8.844;2023-04-25T07:17:56;99447.91;;;7.77;86.61
72570;BME280;60594;50.204;8.844;2023-04-25T07:20:22;99466.22;;;7.91;83.28
72570;BME280;60594;50.204;8.844;2023-04-25T07:22:49;99452.94;;;7.91;82.04
72570;BME280;60594;50.204;8.844;2023-04-25T07:25:16;99464.50;;;8.01;79.84
72570;BME280;60594;50.204;8.844;2023-04-25T07:27:43;99456.06;;;7.96;79.03
72570;BME280;60594;50.204;8.844;2023-04-25T07:30:14;99450.50;;;7.99;75.85
72570;BME280;60594;50.204;8.844;2023-04-25T07:32:40;99456.88;;;8.08;78.73
72570;BME280;60594;50.204;8.844;2023-04-25T07:35:08;99471.47;;;8.13;78.05
72570;BME280;60594;50.204;8.844;2023-04-25T07:37:35;99469.38;;;8.17;75.79
72570;BME280;60594;50.204;8.844;2023-04-25T07:40:17;99471.34;;;8.26;76.70
72570;BME280;60594;50.204;8.844;2023-04-25T07:42:57;99475.66;;;8.27;80.75
72570;BME280;60594;50.204;8.844;2023-04-25T07:45:38;99475.75;;;8.36;76.22
72570;BME280;60594;50.204;8.844;2023-04-25T07:48:05;99479.72;;;8.42;74.29
72570;BME280;60594;50.204;8.844;2023-04-25T07:50:35;99475.13;;;8.44;76.31
72570;BME280;60594;50.204;8.844;2023-04-25T07:53:02;99477.84;;;8.33;78.58
72570;BME280;60594;50.204;8.844;2023-04-25T07:55:35;99484.91;;;8.43;78.80
72570;BME280;60594;50.204;8.844;2023-04-25T07:58:09;99488.09;;;8.26;81.95
72570;BME280;60594;50.204;8.844;2023-04-25T08:00:38;99490.00;;;8.35;85.53
72570;BME280;60594;50.204;8.844;2023-04-25T08:03:32;99490.72;;;8.69;80.78
72570;BME280;60594;50.204;8.844;2023-04-25T08:06:00;99493.22;;;8.91;80.52
72570;BME280;60594;50.204;8.844;2023-04-25T08:08:30;99493.88;;;8.83;74.54
72570;BME280;60594;50.204;8.844;2023-04-25T08:10:57;99494.31;;;8.88;75.01
72570;BME280;60594;50.204;8.844;2023-04-25T08:13:23;99494.72;;;9.04;78.45
72570;BME280;60594;50.204;8.844;2023-04-25T08:15:50;99496.03;;;9.10;74.29
72570;BME280;60594;50.204;8.844;2023-04-25T08:18:17;99502.63;;;9.15;73.07
72570;BME280;60594;50.204;8.844;2023-04-25T08:20:44;99498.72;;;9.19;77.19
72570;BME280;60594;50.204;8.844;2023-04-25T08:23:12;99503.38;;;9.27;79.60
72570;BME280;60594;50.204;8.844;2023-04-25T08:25:47;99498.56;;;9.41;74.42
72570;BME280;60594;50.204;8.844;2023-04-25T08:28:16;99504.22;;;9.57;72.18
72570;BME280;60594;50.204;8.844;2023-04-25T08:30:44;99509.28;;;9.60;71.63
72570;BME280;60594;50.204;8.844;2023-04-25T08:33:12;99510.28;;;9.59;73.50
72570;BME280;60594;50.204;8.844;2023-04-25T08:35:58;99518.38;;;9.58;70.88
72570;BME280;60594;50.204;8.844;2023-04-25T08:38:25;99525.84;;;9.43;72.32
72570;BME280;60594;50.204;8.844;2023-04-25T08:40:53;99521.16;;;9.26;73.12
72570;BME280;60594;50.204;8.844;2023-04-25T08:43:23;99522.78;;;9.18;76.75
72570;BME280;60594;50.204;8.844;2023-04-25T08:45:52;99528.59;;;9.32;71.05
72570;BME280;60594;50.204;8.844;2023-04-25T08:48:32;99528.38;;;9.45;69.04
72570;BME280;60594;50.204;8.844;2023-04-25T08:51:02;99543.81;;;9.51;72.85
72570;BME280;60594;50.204;8.844;2023-04-25T08:53:31;99539.88;;;9.45;71.18
72570;BME280;60594;50.204;8.844;2023-04-25T08:56:00;99545.38;;;9.53;74.20
72570;BME280;60594;50.204;8.844;2023-04-25T08:58:35;99542.03;;;9.61;70.80
72570;BME280;60594;50.204;8.844;2023-04-25T09:01:03;99542.72;;;9.53;72.07
72570;BME280;60594;50.204;8.844;2023-04-25T09:03:36;99559.53;;;9.54;70.28
72570;BME280;60594;50.204;8.844;2023-04-25T09:06:03;99552.31;;;9.45;66.15
72570;BME280;60594;50.204;8.844;2023-04-25T09:08:29;99554.50;;;9.30;68.57
72570;BME280;60594;50.204;8.844;2023-04-25T09:10:56;99559.47;;;9.24;68.74
72570;BME280;60594;50.204;8.844;2023-04-25T09:13:25;99561.63;;;9.09;73.46
72570;BME280;60594;50.204;8.844;2023-04-25T09:16:11;99558.22;;;9.07;69.47
72570;BME280;60594;50.204;8.844;2023-04-25T09:19:00;99573.81;;;9.12;68.00
72570;BME280;60594;50.204;8.844;2023-04-25T09:21:27;99576.00;;;9.07;71.83
72570;BME280;60594;50.204;8.844;2023-04-25T09:23:54;99571.13;;;9.12;70.74
72570;BME280;60594;50.204;8.844;2023-04-25T09:26:21;99577.06;;;9.15;69.96
72570;BME280;60594;50.204;8.844;2023-04-25T09:28:48;99581.84;;;9.21;69.40
72570;BME280;60594;50.204;8.844;2023-04-25T09:31:24;99585.97;;;9.35;69.21
72570;BME280;60594;50.204;8.844;2023-04-25T09:33:59;99585.28;;;9.83;68.88
72570;BME280;60594;50.204;8.844;2023-04-25T09:36:27;99582.56;;;10.43;69.66
72570;BME280;60594;50.204;8.844;2023-04-25T09:39:17;99586.28;;;11.19;67.19
72570;BME280;60594;50.204;8.844;2023-04-25T09:41:55;99585.03;;;11.78;67.98
72570;BME280;60594;50.204;8.844;2023-04-25T09:44:24;99587.66;;;11.97;61.80
72570;BME280;60594;50.204;8.844;2023-04-25T09:46:52;99583.22;;;11.79;63.57
72570;BME280;60594;50.204;8.844;2023-04-25T09:49:21;99582.16;;;11.43;59.54
72570;BME280;60594;50.204;8.844;2023-04-25T09:51:59;99589.66;;;11.02;62.13
72570;BME280;60594;50.204;8.844;2023-04-25T09:54:31;99589.09;;;10.79;66.27
72570;BME280;60594;50.204;8.844;2023-04-25T09:57:24;99591.28;;;10.46;65.03
72570;BME280;60594;50.204;8.844;2023-04-25T09:59:54;99601.44;;;10.21;62.89
72570;BME280;60594;50.204;8.844;2023-04-25T10:02:24;99608.38;;;10.03;67.82
72570;BME280;60594;50.204;8.844;2023-04-25T10:04:55;99607.91;;;9.98;66.41
72570;BME280;60594;50.204;8.844;2023-04-25T10:07:30;99608.47;;;9.92;65.99
72570;BME280;60594;50.204;8.844;2023-04-25T10:10:04;99617.09;;;9.85;68.50
72570;BME280;60594;50.204;8.844;2023-04-25T10:12:32;99609.91;;;9.76;66.42
72570;BME280;60594;50.204;8.844;2023-04-25T10:15:00;99610.59;;;9.78;64.75
72570;BME280;60594;50.204;8.844;2023-04-25T10:17:27;99613.84;;;9.61;70.69
72570;BME280;60594;50.204;8.844;2023-04-25T10:19:56;99632.22;;;9.64;66.57
72570;BME280;60594;50.204;8.844;2023-04-25T10:22:29;99631.91;;;9.57;65.94
72570;BME280;60594;50.204;8.844;2023-04-25T10:24:57;99631.84;;;9.48;67.25
72570;BME280;60594;50.204;8.844;2023-04-25T10:27:26;99633.22;;;9.42;70.08
72570;BME280;60594;50.204;8.844;2023-04-25T10:30:09;99638.34;;;9.34;67.84
72570;BME280;60594;50.204;8.844;2023-04-25T10:32:38;99647.59;;;9.19;70.74
72570;BME280;60594;50.204;8.844;2023-04-25T10:35:15;99647.06;;;9.25;70.23
72570;BME280;60594;50.204;8.844;2023-04-25T10:40:32;99645.66;;;9.21;67.85
72570;BME280;60594;50.204;8.844;2023-04-25T10:45:54;99653.88;;;9.18;69.77
72570;BME280;60594;50.204;8.844;2023-04-25T10:48:27;99660.28;;;9.16;70.30
72570;BME280;60594;50.204;8.844;2023-04-25T10:51:10;99654.59;;;9.20;68.50
72570;BME280;60594;50.204;8.844;2023-04-25T10:53:37;99651.88;;;9.31;68.20
72570;BME280;60594;50.204;8.844;2023-04-25T10:56:20;99661.41;;;9.34;67.15
72570;BME280;60594;50.204;8.844;2023-04-25T10:58:48;99660.19;;;9.38;68.80
72570;BME280;60594;50.204;8.844;2023-04-25T11:01:24;99664.41;;;9.40;71.27
72570;BME280;60594;50.204;8.844;2023-04-25T11:03:57;99663.53;;;9.51;65.62
72570;BME280;60594;50.204;8.844;2023-04-25T11:06:34;99664.34;;;9.51;66.03
72570;BME280;60594;50.204;8.844;2023-04-25T11:09:10;99661.91;;;9.59;65.29
72570;BME280;60594;50.204;8.844;2023-04-25T11:11:39;99669.47;;;9.64;66.85
72570;BME280;60594;50.204;8.844;2023-04-25T11:14:06;99664.69;;;9.78;64.96
72570;BME280;60594;50.204;8.844;2023-04-25T11:16:32;99661.47;;;9.84;66.57
72570;BME280;60594;50.204;8.844;2023-04-25T11:19:00;99658.69;;;9.86;63.77
72570;BME280;60594;50.204;8.844;2023-04-25T11:21:26;99662.91;;;9.88;62.86
72570;BME280;60594;50.204;8.844;2023-04-25T11:23:56;99654.78;;;9.90;65.25
72570;BME280;60594;50.204;8.844;2023-04-25T11:26:23;99659.66;;;9.85;65.96
72570;BME280;60594;50.204;8.844;2023-04-25T11:28:51;99667.44;;;9.97;63.63
72570;BME280;60594;50.204;8.844;2023-04-25T11:31:20;99668.31;;;9.98;64.63
72570;BME280;60594;50.204;8.844;2023-04-25T11:33:47;99653.47;;;10.05;63.31
72570;BME280;60594;50.204;8.844;2023-04-25T11:36:14;99657.81;;;10.26;65.53
72570;BME280;60594;50.204;8.844;2023-04-25T11:38:41;99654.03;;;10.88;63.51
72570;BME280;60594;50.204;8.844;2023-04-25T11:41:07;99647.31;;;11.50;60.15
72570;BME280;60594;50.204;8.844;2023-04-25T11:43:34;99658.25;;;11.76;58.88
72570;BME280;60594;50.204;8.844;2023-04-25T11:46:01;99649.69;;;11.82;57.07
72570;BME280;60594;50.204;8.844;2023-04-25T11:48:36;99664.19;;;11.70;54.34
72570;BME280;60594;50.204;8.844;2023-04-25T11:51:04;99661.81;;;11.38;58.17
72570;BME280;60594;50.204;8.844;2023-04-25T11:53:30;99670.22;;;11.15;58.65
72570;BME280;60594;50.204;8.844;2023-04-25T11:55:57;99669.38;;;11.14;56.00
72570;BME280;60594;50.204;8.844;2023-04-25T11:58:23;99675.25;;;10.99;57.30
72570;BME280;60594;50.204;8.844;2023-04-25T12:00:51;99672.53;;;10.80;58.46
72570;BME280;60594;50.204;8.844;2023-04-25T12:03:18;99681.22;;;10.63;59.56
72570;BME280;60594;50.204;8.844;2023-04-25T12:05:45;99682.50;;;10.38;57.07
72570;BME280;60594;50.204;8.844;2023-04-25T12:08:13;99694.47;;;10.13;58.24
72570;BME280;60594;50.204;8.844;2023-04-25T12:10:41;99689.84;;;9.95;61.11
72570;BME280;60594;50.204;8.844;2023-04-25T12:13:25;99697.78;;;9.85;59.24
72570;BME280;60594;50.204;8.844;2023-04-25T12:15:54;99698.88;;;9.83;59.08
72570;BME280;60594;50.204;8.844;2023-04-25T12:18:23;99698.47;;;9.87;64.58
72570;BME280;60594;50.204;8.844;2023-04-25T12:20:50;99698.72;;;9.84;62.60
72570;BME280;60594;50.204;8.844;2023-04-25T12:23:16;99704.19;;;9.83;59.92
72570;BME280;60594;50.204;8.844;2023-04-25T12:25:44;99698.03;;;9.82;60.15
72570;BME280;60594;50.204;8.844;2023-04-25T12:33:25;99701.59;;;9.72;63.13
72570;BME280;60594;50.204;8.844;2023-04-25T12:35:52;99696.13;;;9.73;60.75
72570;BME280;60594;50.204;8.844;2023-04-25T12:38:22;99710.56;;;9.71;59.03
72570;BME280;60594;50.204;8.844;2023-04-25T12:40:49;99705.03;;;9.63;62.01
72570;BME280;60594;50.204;8.844;2023-04-25T12:43:16;99703.25;;;9.63;62.85
72570;BME280;60594;50.204;8.844;2023-04-25T12:45:42;99713.34;;;9.69;60.48
72570;BME280;60594;50.204;8.844;2023-04-25T12:48:09;99705.09;;;9.72;63.54
72570;BME280;60594;50.204;8.844;2023-04-25T12:50:36;99699.59;;;9.85;61.02
72570;BME280;60594;50.204;8.844;2023-04-25T12:53:02;99706.25;;;10.00;61.10
72570;BME280;60594;50.204;8.844;2023-04-25T12:55:29;99701.53;;;10.03;61.46
72570;BME280;60594;50.204;8.844;2023-04-25T12:57:56;99708.94;;;10.20;65.90
72570;BME280;60594;50.204;8.844;2023-04-25T13:00:22;99714.09;;;10.43;58.44
72570;BME280;60594;50.204;8.844;2023-04-25T13:02:48;99713.91;;;10.74;60.64
72570;BME280;60594;50.204;8.844;2023-04-25T13:05:15;99710.66;;;11.20;58.75
72570;BME280;60594;50.204;8.844;2023-04-25T13:07:42;99710.53;;;11.69;54.73
72570;BME280;60594;50.204;8.844;2023-04-25T13:10:08;99718.66;;;11.96;58.28
72570;BME280;60594;50.204;8.844;2023-04-25T13:12:34;99718.13;;;11.73;54.29
72570;BME280;60594;50.204;8.844;2023-04-25T13:15:01;99708.69;;;11.41;53.04
72570;BME280;60594;50.204;8.844;2023-04-25T13:17:28;99717.38;;;11.24;53.15
72570;BME280;60594;50.204;8.844;2023-04-25T13:19:54;99720.72;;;11.07;56.67
72570;BME280;60594;50.204;8.844;2023-04-25T13:22:20;99724.75;;;10.92;58.36
72570;BME280;60594;50.204;8.844;2023-04-25T13:24:47;99721.09;;;10.74;57.40
72570;BME280;60594;50.204;8.844;2023-04-25T13:27:13;99719.63;;;10.70;58.42
72570;BME280;60594;50.204;8.844;2023-04-25T13:29:40;99719.94;;;10.67;58.97
72570;BME280;60594;50.204;8.844;2023-04-25T13:32:08;99720.75;;;10.67;62.28
72570;BME280;60594;50.204;8.844;2023-04-25T13:34:35;99718.94;;;10.68;64.30